createdAt,value
2022-10-12T00:01:13.002Z,6.47
2022-10-12T00:03:40.746Z,8.43
2022-10-12T00:06:17.589Z,11.27
2022-10-12T00:08:46.308Z,9.57
2022-10-12T00:11:25.645Z,12.40
2022-10-12T00:13:53.939Z,9.83
2022-10-12T00:16:22.808Z,9.33
2022-10-12T00:18:55.388Z,9.63
2022-10-12T00:21:28.096Z,7.73
2022-10-12T00:24:00.879Z,7.93
2022-10-12T00:26:29.365Z,8.40
2022-10-12T00:29:00.053Z,9.10
2022-10-12T00:31:29.027Z,7.83
2022-10-12T00:33:59.903Z,8.23
2022-10-12T00:36:31.636Z,6.10
2022-10-12T00:38:59.711Z,6.30
2022-10-12T00:41:31.303Z,6.67
2022-10-12T00:43:59.302Z,8.53
2022-10-12T00:46:37.544Z,6.97
2022-10-12T00:49:20.059Z,7.33
2022-10-12T00:52:00.488Z,6.40
2022-10-12T00:54:33.941Z,8.87
2022-10-12T00:57:04.630Z,5.67
2022-10-12T00:59:40.826Z,6.80
2022-10-12T01:02:09.059Z,6.23
2022-10-12T01:04:38.961Z,7.00
2022-10-12T01:07:06.768Z,12.03
2022-10-12T01:09:36.906Z,8.57
2022-10-12T01:12:06.431Z,7.13
2022-10-12T01:14:35.286Z,6.57
2022-10-12T01:17:23.124Z,8.07
2022-10-12T01:19:54.977Z,9.37
2022-10-12T01:22:25.201Z,10.33
2022-10-12T01:25:04.850Z,7.63
2022-10-12T01:27:41.232Z,8.33
2022-10-12T01:30:11.685Z,8.00
2022-10-12T01:32:42.284Z,6.97
2022-10-12T01:35:21.787Z,8.63
2022-10-12T01:38:20.406Z,5.97
2022-10-12T01:41:03.717Z,12.30
2022-10-12T01:43:42.440Z,13.80
2022-10-12T01:46:12.761Z,10.33
2022-10-12T01:48:41.693Z,8.27
2022-10-12T01:51:12.441Z,9.17
2022-10-12T01:53:50.956Z,7.10
2022-10-12T01:56:50.098Z,7.03
2022-10-12T01:59:55.397Z,8.20
2022-10-12T02:02:37.087Z,10.67
2022-10-12T02:05:10.340Z,7.33
2022-10-12T02:08:15.812Z,7.10
2022-10-12T02:10:57.096Z,8.73
2022-10-12T02:13:29.831Z,8.93
2022-10-12T02:15:59.848Z,10.33
2022-10-12T02:18:29.118Z,9.60
2022-10-12T02:20:59.472Z,10.23
2022-10-12T02:23:28.666Z,10.57
2022-10-12T02:25:58.653Z,7.83
2022-10-12T02:28:29.715Z,10.10
2022-10-12T02:31:18.514Z,7.10
2022-10-12T02:33:49.406Z,10.27
2022-10-12T02:36:47.867Z,7.63
2022-10-12T02:39:21.082Z,9.23
2022-10-12T02:41:52.616Z,7.27
2022-10-12T02:44:24.496Z,10.30
2022-10-12T02:46:54.526Z,6.93
2022-10-12T02:49:24.686Z,9.83
2022-10-12T02:51:52.849Z,9.10
2022-10-12T02:54:21.137Z,8.90
2022-10-12T02:56:48.788Z,11.33
2022-10-12T02:59:17.798Z,7.87
2022-10-12T03:01:45.437Z,8.60
2022-10-12T03:04:13.177Z,11.27
2022-10-12T03:06:42.509Z,10.17
2022-10-12T03:09:10.166Z,9.17
2022-10-12T03:11:37.819Z,7.00
2022-10-12T03:14:05.441Z,7.47
2022-10-12T03:16:33.019Z,7.83
2022-10-12T03:19:00.630Z,8.60
2022-10-12T03:21:28.241Z,7.30
2022-10-12T03:23:55.806Z,10.03
2022-10-12T03:26:23.428Z,9.83
2022-10-12T03:28:51.130Z,8.83
2022-10-12T03:31:21.669Z,7.97
2022-10-12T03:34:07.926Z,7.85
2022-10-12T03:36:35.619Z,9.90
2022-10-12T03:39:03.367Z,11.47
2022-10-12T03:41:33.532Z,10.50
2022-10-12T03:44:01.369Z,8.67
2022-10-12T03:46:28.957Z,9.70
2022-10-12T03:48:58.791Z,11.50
2022-10-12T03:51:29.465Z,8.77
2022-10-12T03:53:57.143Z,8.93
2022-10-12T03:56:24.755Z,7.90
2022-10-12T03:58:52.381Z,6.60
2022-10-12T04:01:20.125Z,6.63
2022-10-12T04:03:47.705Z,8.37
2022-10-12T04:06:15.263Z,8.50
2022-10-12T04:08:49.873Z,8.63
2022-10-12T04:11:20.240Z,8.87
2022-10-12T04:13:48.060Z,8.53
2022-10-12T04:16:15.647Z,6.90
2022-10-12T04:18:43.332Z,9.03
2022-10-12T04:21:15.940Z,8.33
2022-10-12T04:23:43.859Z,7.57
2022-10-12T04:26:11.653Z,8.47
2022-10-12T04:28:39.847Z,9.00
2022-10-12T04:31:07.729Z,9.90
2022-10-12T04:33:35.358Z,7.30
2022-10-12T04:36:03.091Z,13.10
2022-10-12T04:38:30.705Z,10.00
2022-10-12T04:40:58.296Z,6.73
2022-10-12T04:43:26.416Z,10.57
2022-10-12T04:45:58.741Z,8.90
2022-10-12T04:48:27.328Z,7.83
2022-10-12T04:50:54.949Z,12.10
2022-10-12T04:53:22.630Z,11.20
2022-10-12T04:55:50.231Z,11.10
2022-10-12T04:58:17.833Z,7.83
2022-10-12T05:00:47.551Z,7.63
2022-10-12T05:03:15.321Z,10.87
2022-10-12T06:34:27.892Z,6.60
2022-10-12T06:36:59.560Z,5.77
2022-10-12T06:39:32.047Z,3.83
2022-10-12T06:41:59.996Z,7.40
2022-10-12T06:44:27.633Z,5.97
2022-10-12T06:46:55.279Z,4.60
2022-10-12T06:49:22.860Z,8.37
2022-10-12T06:51:50.460Z,10.70
2022-10-12T06:54:18.137Z,8.80
2022-10-12T06:56:45.682Z,9.40
2022-10-12T06:59:13.556Z,6.57
2022-10-12T07:01:41.229Z,5.83
2022-10-12T07:04:08.901Z,5.97
2022-10-12T07:06:36.482Z,6.20
2022-10-12T07:09:04.162Z,8.30
2022-10-12T07:11:31.743Z,8.07
2022-10-12T07:13:59.355Z,8.00
2022-10-12T07:16:27.054Z,5.37
2022-10-12T07:18:54.684Z,5.37
2022-10-12T07:21:22.220Z,5.27
2022-10-12T07:23:49.826Z,3.80
2022-10-12T07:26:17.478Z,6.17
2022-10-12T07:28:45.354Z,6.33
2022-10-12T07:31:13.070Z,9.97
2022-10-12T07:33:40.644Z,4.00
2022-10-12T07:36:21.281Z,5.87
2022-10-12T07:38:50.107Z,5.90
2022-10-12T07:41:17.761Z,6.97
2022-10-12T07:43:45.885Z,4.73
2022-10-12T07:46:13.667Z,5.33
2022-10-12T07:48:45.620Z,4.63
2022-10-12T07:51:14.959Z,12.17
2022-10-12T07:53:45.447Z,6.57
2022-10-12T07:56:17.030Z,6.33
2022-10-12T07:58:52.855Z,7.50
2022-10-12T08:01:22.486Z,5.77
2022-10-12T08:03:50.965Z,8.83
2022-10-12T08:06:22.233Z,8.67
2022-10-12T08:08:50.467Z,5.13
2022-10-12T08:11:19.226Z,6.63
2022-10-12T08:13:47.214Z,4.97
2022-10-12T08:16:18.098Z,6.17
2022-10-12T08:18:46.134Z,6.40
2022-10-12T08:21:15.774Z,6.97
2022-10-12T08:23:46.604Z,6.37
2022-10-12T08:26:15.741Z,8.47
2022-10-12T08:28:44.172Z,8.20
2022-10-12T08:31:15.000Z,5.93
2022-10-12T08:33:42.636Z,5.07
2022-10-12T08:36:12.409Z,7.10
2022-10-12T08:38:40.374Z,7.70
2022-10-12T08:41:40.021Z,5.87
2022-10-12T08:44:13.313Z,7.67
2022-10-12T08:46:41.039Z,9.73
2022-10-12T08:49:22.575Z,4.27
2022-10-12T08:51:57.265Z,6.20
2022-10-12T08:54:29.242Z,5.97
2022-10-12T08:56:57.866Z,8.27
2022-10-12T08:59:27.659Z,8.63
2022-10-12T09:02:32.925Z,5.77
2022-10-12T09:05:07.672Z,5.87
2022-10-12T09:07:37.409Z,8.17
2022-10-12T09:10:24.114Z,6.60
2022-10-12T09:13:06.996Z,6.10
2022-10-12T09:16:03.546Z,7.40
2022-10-12T09:18:41.256Z,4.33
2022-10-12T09:21:18.050Z,4.80
2022-10-12T09:23:46.401Z,5.63
2022-10-12T09:26:21.710Z,7.63
2022-10-12T09:28:49.452Z,5.70
2022-10-12T09:31:27.281Z,7.40
2022-10-12T09:33:58.605Z,6.97
2022-10-12T09:36:32.190Z,6.33
2022-10-12T09:39:05.051Z,5.73
2022-10-12T09:41:42.701Z,5.20
2022-10-12T09:44:35.204Z,8.07
2022-10-12T09:47:09.130Z,6.83
2022-10-12T09:49:41.740Z,7.20
2022-10-12T09:52:11.086Z,5.37
2022-10-12T09:54:48.031Z,6.23
2022-10-12T09:57:26.354Z,6.13
2022-10-12T09:59:55.485Z,6.23
2022-10-12T10:02:25.320Z,6.10
2022-10-12T10:04:54.355Z,6.50
2022-10-12T10:07:29.754Z,6.73
2022-10-12T10:10:12.411Z,6.93
2022-10-12T10:12:48.243Z,6.00
2022-10-12T10:15:22.572Z,6.43
2022-10-12T10:17:55.325Z,4.37
2022-10-12T10:20:34.156Z,5.23
2022-10-12T10:23:04.834Z,8.37
2022-10-12T10:25:34.210Z,8.93
2022-10-12T10:28:23.961Z,6.93
2022-10-12T10:31:02.737Z,8.03
2022-10-12T10:33:32.549Z,5.70
2022-10-12T10:36:00.130Z,9.67
2022-10-12T10:38:31.049Z,8.13
2022-10-12T10:41:01.790Z,8.20
2022-10-12T10:43:31.746Z,7.68
2022-10-12T10:46:02.665Z,8.43
2022-10-12T10:48:37.356Z,5.63
2022-10-12T10:51:06.983Z,7.82
2022-10-12T10:53:46.713Z,8.15
2022-10-12T10:56:29.725Z,6.97
2022-10-12T10:59:05.261Z,8.13
2022-10-12T11:01:52.702Z,7.80
2022-10-12T11:04:32.549Z,7.35
2022-10-12T11:07:24.383Z,8.90
2022-10-12T11:09:55.999Z,9.45
2022-10-12T11:12:43.543Z,7.65
2022-10-12T11:15:20.782Z,6.50
2022-10-12T11:17:52.247Z,7.28
2022-10-12T11:20:43.524Z,8.30
2022-10-12T11:23:22.043Z,10.43
2022-10-12T11:25:55.624Z,6.03
2022-10-12T11:28:26.840Z,6.90
2022-10-12T11:30:54.631Z,5.55
2022-10-12T11:33:38.569Z,12.77
2022-10-12T11:36:10.820Z,8.18
2022-10-12T11:38:54.396Z,7.15
2022-10-12T11:41:36.020Z,9.23
2022-10-12T11:44:14.102Z,6.65
2022-10-12T11:46:51.442Z,8.10
2022-10-12T11:49:44.472Z,10.50
2022-10-12T11:52:12.690Z,8.25
2022-10-12T11:54:48.623Z,8.40
2022-10-12T11:57:28.303Z,7.43
2022-10-12T12:00:07.019Z,6.82
2022-10-12T12:02:41.363Z,7.10
2022-10-12T12:05:16.927Z,7.30
2022-10-12T12:08:03.019Z,8.57
2022-10-12T12:10:34.801Z,6.28
2022-10-12T12:13:12.807Z,6.90
2022-10-12T12:15:41.148Z,7.65
2022-10-12T12:18:18.643Z,4.82
2022-10-12T12:20:48.830Z,7.15
2022-10-12T12:23:35.367Z,6.00
2022-10-12T12:26:16.560Z,6.13
2022-10-12T12:28:49.305Z,7.85
2022-10-12T12:31:22.999Z,5.68
2022-10-12T12:34:06.909Z,8.20
2022-10-12T12:36:42.468Z,6.20
2022-10-12T12:39:24.496Z,10.68
2022-10-12T12:42:05.910Z,6.97
2022-10-12T12:44:43.624Z,8.98
2022-10-12T12:47:43.521Z,6.93
2022-10-12T12:50:02.277Z,8.57
2022-10-12T12:52:40.749Z,5.50
2022-10-12T12:55:14.208Z,7.40
2022-10-12T12:58:02.379Z,4.95
2022-10-12T13:01:04.561Z,6.55
2022-10-12T13:03:44.066Z,10.50
2022-10-12T13:06:39.905Z,7.68
2022-10-12T13:09:33.048Z,10.82
2022-10-12T13:12:23.794Z,7.68
2022-10-12T13:15:00.577Z,7.38
2022-10-12T13:17:43.703Z,6.72
2022-10-12T13:20:21.096Z,7.40
2022-10-12T13:22:52.822Z,9.50
2022-10-12T13:25:29.565Z,15.57
2022-10-12T13:28:02.755Z,10.43
2022-10-12T13:30:43.139Z,8.52
2022-10-12T13:33:12.668Z,8.18
2022-10-12T13:35:48.712Z,7.15
2022-10-12T13:38:21.103Z,8.73
2022-10-12T13:41:08.994Z,9.65
2022-10-12T13:43:49.057Z,6.90
2022-10-12T13:46:43.122Z,8.23
2022-10-12T13:49:16.849Z,9.05
2022-10-12T13:51:47.812Z,12.18
2022-10-12T13:54:38.669Z,12.45
2022-10-12T13:57:39.693Z,8.93
2022-10-12T14:00:16.434Z,9.85
2022-10-12T14:02:57.844Z,7.72
2022-10-12T14:05:27.094Z,8.63
2022-10-12T14:08:00.055Z,11.07
2022-10-12T14:10:36.710Z,7.85
2022-10-12T14:13:05.584Z,9.05
2022-10-12T14:15:43.503Z,8.63
2022-10-12T14:18:39.582Z,8.68
2022-10-12T14:21:27.269Z,8.45
2022-10-12T14:24:06.948Z,9.02
2022-10-12T14:26:44.381Z,8.57
2022-10-12T14:29:39.388Z,9.18
2022-10-12T14:32:10.619Z,9.27
2022-10-12T14:34:40.824Z,7.38
2022-10-12T14:37:14.929Z,7.65
2022-10-12T14:39:49.079Z,8.02
2022-10-12T14:42:19.678Z,9.48
2022-10-12T14:44:48.949Z,9.63
2022-10-12T14:47:19.891Z,9.77
2022-10-12T14:49:49.987Z,7.15
2022-10-12T14:52:24.506Z,10.98
2022-10-12T14:54:53.938Z,9.27
2022-10-12T14:57:23.269Z,7.78
2022-10-12T14:59:50.983Z,10.90
2022-10-12T15:02:44.754Z,6.28
2022-10-12T15:05:14.458Z,8.93
2022-10-12T15:07:42.905Z,10.52
2022-10-12T15:10:10.511Z,11.70
2022-10-12T15:12:38.261Z,10.82
2022-10-12T15:15:28.646Z,10.82
2022-10-12T15:17:57.889Z,10.50
2022-10-12T15:20:27.160Z,6.45
2022-10-12T15:22:54.863Z,14.93
2022-10-12T15:25:36.845Z,8.63
2022-10-12T15:28:05.078Z,7.20
2022-10-12T15:30:47.360Z,8.40
2022-10-12T15:33:24.482Z,10.25
2022-10-12T15:35:52.166Z,11.02
2022-10-12T15:38:22.835Z,9.65
2022-10-12T15:40:58.327Z,9.32
2022-10-12T15:43:38.044Z,9.30
2022-10-12T15:46:10.823Z,9.40
2022-10-12T15:48:40.058Z,9.70
2022-10-12T15:51:20.697Z,9.50
2022-10-12T15:53:49.154Z,9.53
2022-10-12T15:56:18.494Z,12.70
2022-10-12T15:58:46.202Z,8.30
2022-10-12T16:01:18.120Z,11.35
2022-10-12T16:03:46.824Z,9.50
2022-10-12T16:06:15.125Z,9.00
2022-10-12T16:08:43.294Z,8.40
2022-10-12T16:11:16.212Z,10.88
2022-10-12T16:13:51.025Z,12.60
2022-10-12T16:16:21.641Z,7.40
2022-10-12T16:18:49.408Z,9.33
2022-10-12T16:21:17.056Z,12.80
2022-10-12T16:23:44.725Z,11.53
2022-10-12T16:26:14.467Z,11.60
2022-10-12T16:28:42.495Z,7.80
2022-10-12T16:31:17.374Z,10.57
2022-10-12T16:33:45.685Z,13.37
2022-10-12T16:36:15.458Z,11.97
2022-10-12T16:38:44.234Z,10.60
2022-10-12T16:41:16.479Z,13.67
2022-10-12T16:43:44.533Z,11.47
2022-10-12T16:46:12.107Z,10.57
2022-10-12T16:48:43.325Z,13.77
2022-10-12T16:51:15.509Z,12.17
2022-10-12T16:53:43.775Z,12.67
2022-10-12T16:56:11.409Z,13.43
2022-10-12T16:58:39.070Z,13.10
2022-10-12T17:01:11.601Z,16.93
2022-10-12T17:03:40.223Z,15.17
2022-10-12T17:06:08.119Z,10.17
2022-10-12T17:08:38.849Z,14.03
2022-10-12T17:11:13.358Z,11.77
2022-10-12T17:13:46.607Z,13.80
2022-10-12T17:16:36.042Z,17.00
2022-10-12T17:19:03.784Z,16.00
2022-10-12T17:21:31.469Z,19.97
2022-10-12T17:24:00.249Z,19.80
2022-10-12T17:26:29.026Z,20.67
2022-10-12T17:28:56.674Z,22.17
2022-10-12T17:31:24.431Z,25.10
2022-10-12T17:33:52.118Z,15.30
2022-10-12T17:36:22.293Z,37.90
2022-10-12T17:38:52.224Z,33.37
2022-10-12T17:41:22.529Z,22.03
2022-10-12T17:43:53.130Z,20.47
2022-10-12T17:46:23.444Z,17.33
2022-10-12T17:48:51.226Z,19.50
2022-10-12T17:51:19.018Z,18.67
2022-10-12T17:53:46.702Z,18.73
2022-10-12T17:56:15.226Z,17.23
2022-10-12T17:58:43.340Z,18.60
2022-10-12T18:01:13.715Z,17.63
2022-10-12T18:03:44.229Z,20.30
2022-10-12T18:06:18.808Z,21.13
2022-10-12T18:08:46.923Z,18.17
2022-10-12T18:11:19.607Z,18.27
2022-10-12T18:13:53.338Z,17.27
2022-10-12T18:16:26.813Z,21.60
2022-10-12T18:18:55.376Z,19.10
2022-10-12T18:21:28.263Z,17.63
2022-10-12T18:23:55.962Z,15.27
2022-10-12T18:26:27.718Z,15.33
2022-10-12T18:28:58.064Z,15.87
2022-10-12T18:31:27.106Z,16.77
2022-10-12T18:33:56.493Z,15.07
2022-10-12T18:36:24.632Z,25.07
2022-10-12T18:38:52.882Z,22.80
2022-10-12T18:41:25.735Z,18.10
2022-10-12T18:43:58.437Z,19.30
2022-10-12T18:46:28.113Z,16.90
2022-10-12T18:48:56.141Z,17.33
2022-10-12T18:51:28.254Z,17.23
2022-10-12T18:54:05.531Z,18.73
2022-10-12T18:56:35.238Z,16.97
2022-10-12T18:59:03.133Z,16.13
2022-10-12T19:01:32.858Z,38.93
2022-10-12T19:04:03.031Z,24.90
2022-10-12T19:06:33.624Z,19.03
2022-10-12T19:09:01.970Z,22.07
2022-10-12T19:11:32.872Z,18.07
2022-10-12T19:14:03.780Z,17.80
2022-10-12T19:16:32.107Z,14.20
2022-10-12T19:19:05.004Z,17.77
2022-10-12T19:21:33.054Z,15.97
2022-10-12T19:24:08.221Z,16.33
2022-10-12T19:26:36.150Z,15.87
2022-10-12T19:29:04.380Z,17.90
2022-10-12T19:31:41.561Z,16.37
2022-10-12T19:34:12.617Z,17.40
2022-10-12T19:36:41.353Z,15.87
2022-10-12T19:39:15.863Z,16.60
2022-10-12T19:41:49.134Z,14.23
2022-10-12T19:44:19.041Z,13.27
2022-10-12T19:46:51.411Z,12.97
2022-10-12T19:49:22.273Z,14.93
2022-10-12T19:51:49.864Z,13.27
2022-10-12T19:54:17.862Z,13.57
2022-10-12T19:56:45.722Z,13.63
2022-10-12T19:59:13.427Z,11.97
2022-10-12T20:01:41.706Z,15.60
2022-10-12T20:04:11.913Z,18.17
2022-10-12T20:06:39.793Z,11.77
2022-10-12T20:09:11.440Z,14.80
2022-10-12T20:11:39.634Z,16.20
2022-10-12T20:14:07.885Z,22.70
2022-10-12T20:16:36.283Z,13.43
2022-10-12T20:19:08.299Z,18.00
2022-10-12T20:21:38.750Z,19.97
2022-10-12T20:24:09.719Z,17.20
2022-10-12T20:26:37.500Z,17.13
2022-10-12T20:29:05.150Z,11.30
2022-10-12T20:31:32.786Z,12.60
2022-10-12T20:34:05.620Z,14.80
2022-10-12T20:36:33.284Z,12.50
2022-10-12T20:39:00.864Z,15.83
2022-10-12T20:41:29.207Z,15.70
2022-10-12T20:43:58.327Z,16.37
2022-10-12T20:46:33.005Z,16.37
2022-10-12T20:49:02.330Z,18.53
2022-10-12T20:51:41.677Z,14.47
2022-10-12T20:54:15.856Z,14.20
2022-10-12T20:56:43.954Z,15.13
2022-10-12T20:59:11.763Z,11.67
2022-10-12T21:01:43.503Z,13.60
2022-10-12T21:04:16.089Z,13.53
2022-10-12T21:06:43.688Z,12.53
2022-10-12T21:09:14.327Z,13.93
2022-10-12T21:11:43.611Z,14.30
2022-10-12T21:14:12.966Z,17.57
2022-10-12T21:16:43.619Z,16.20
2022-10-12T21:19:16.411Z,15.30
2022-10-12T21:21:46.408Z,15.50
2022-10-12T21:24:14.871Z,16.53
2022-10-12T21:26:42.902Z,16.03
2022-10-12T21:29:13.498Z,16.97
2022-10-12T21:31:41.045Z,12.53
2022-10-12T21:34:09.988Z,20.83
2022-10-12T21:36:39.875Z,13.30
2022-10-12T21:39:12.696Z,17.43
2022-10-12T21:41:41.058Z,15.23
2022-10-12T21:44:10.463Z,13.97
2022-10-12T21:46:38.583Z,15.73
2022-10-12T21:49:09.787Z,19.50
2022-10-12T21:51:37.690Z,16.07
2022-10-12T21:54:07.095Z,17.03
2022-10-12T21:56:36.500Z,18.13
2022-10-12T21:59:05.857Z,14.77
2022-10-12T22:01:38.501Z,12.07
2022-10-12T22:04:11.713Z,14.93
2022-10-12T22:06:39.685Z,14.83
2022-10-12T22:09:11.224Z,14.47
2022-10-12T22:11:38.880Z,15.07
2022-10-12T22:14:12.465Z,12.70
2022-10-12T22:16:40.408Z,15.80
2022-10-12T22:19:10.778Z,19.47
2022-10-12T22:21:38.416Z,13.40
2022-10-12T22:24:06.306Z,16.33
2022-10-12T22:26:35.182Z,13.37
2022-10-12T22:29:05.765Z,16.57
2022-10-12T22:31:34.244Z,18.40
2022-10-12T22:34:01.877Z,14.50
2022-10-12T22:36:29.471Z,13.80
2022-10-12T22:38:57.060Z,16.97
2022-10-12T22:41:25.027Z,16.60
2022-10-12T22:43:54.829Z,14.83
2022-10-12T22:46:24.822Z,13.90
2022-10-12T22:48:53.377Z,14.07
2022-10-12T22:51:32.300Z,13.33
2022-10-12T22:54:00.942Z,13.47
2022-10-12T22:56:29.265Z,12.97
2022-10-12T22:59:00.372Z,14.00
2022-10-12T23:01:28.588Z,14.33
2022-10-12T23:03:56.196Z,14.77
2022-10-12T23:06:25.233Z,15.33
2022-10-12T23:08:53.369Z,16.47
2022-10-12T23:11:23.873Z,14.57
2022-10-12T23:13:51.654Z,15.60
2022-10-12T23:16:22.592Z,14.13
2022-10-12T23:19:09.763Z,14.87
2022-10-12T23:21:37.353Z,14.20
2022-10-12T23:24:05.527Z,16.07
2022-10-12T23:26:36.123Z,12.80
2022-10-12T23:29:03.830Z,17.67
2022-10-12T23:31:32.128Z,15.60
2022-10-12T23:34:02.313Z,16.83
2022-10-12T23:36:33.563Z,12.93
2022-10-12T23:39:04.650Z,16.17
2022-10-12T23:41:32.496Z,17.23
2022-10-12T23:44:00.074Z,14.80
2022-10-12T23:46:27.889Z,14.77
2022-10-12T23:48:55.449Z,15.20
2022-10-12T23:51:23.266Z,13.87
2022-10-12T23:53:50.876Z,16.93
2022-10-12T23:56:18.672Z,17.50
2022-10-12T23:58:46.249Z,17.07
